sensor_id;sensor_type;location;lat;lon;timestamp;temperature;humidity
10070;DHT22;5074;53.720;10.014;2022-10-17T00:00:37;10.80;99.90
10070;DHT22;5074;53.720;10.014;2022-10-17T00:03:06;10.80;99.90
10070;DHT22;5074;53.720;10.014;2022-10-17T00:05:37;10.90;99.90
10070;DHT22;5074;53.720;10.014;2022-10-17T00:08:06;10.90;99.90
10070;DHT22;5074;53.720;10.014;2022-10-17T00:10:34;10.90;99.90
10070;DHT22;5074;53.720;10.014;2022-10-17T00:13:03;10.90;99.90
10070;DHT22;5074;53.720;10.014;2022-10-17T00:15:33;10.90;99.90
10070;DHT22;5074;53.720;10.014;2022-10-17T00:18:01;10.90;99.90
10070;DHT22;5074;53.720;10.014;2022-10-17T00:20:29;11.00;99.90
10070;DHT22;5074;53.720;10.014;2022-10-17T00:22:58;11.00;99.90
10070;DHT22;5074;53.720;10.014;2022-10-17T00:25:26;11.00;99.90
10070;DHT22;5074;53.720;10.014;2022-10-17T00:27:54;11.00;99.90
10070;DHT22;5074;53.720;10.014;2022-10-17T00:30:22;11.00;99.90
10070;DHT22;5074;53.720;10.014;2022-10-17T00:32:51;11.00;99.90
10070;DHT22;5074;53.720;10.014;2022-10-17T00:35:19;11.00;99.90
10070;DHT22;5074;53.720;10.014;2022-10-17T00:37:48;11.00;99.90
10070;DHT22;5074;53.720;10.014;2022-10-17T00:40:16;11.10;99.90
10070;DHT22;5074;53.720;10.014;2022-10-17T00:42:44;11.10;99.90
10070;DHT22;5074;53.720;10.014;2022-10-17T00:45:14;11.10;99.90
10070;DHT22;5074;53.720;10.014;2022-10-17T00:47:46;11.10;99.90
10070;DHT22;5074;53.720;10.014;2022-10-17T00:50:19;11.00;99.90
10070;DHT22;5074;53.720;10.014;2022-10-17T00:52:47;11.10;99.90
10070;DHT22;5074;53.720;10.014;2022-10-17T00:55:16;11.00;99.90
10070;DHT22;5074;53.720;10.014;2022-10-17T00:57:46;11.00;99.90
10070;DHT22;5074;53.720;10.014;2022-10-17T01:00:15;11.00;99.90
10070;DHT22;5074;53.720;10.014;2022-10-17T01:02:44;11.00;99.90
10070;DHT22;5074;53.720;10.014;2022-10-17T01:05:12;11.00;99.90
10070;DHT22;5074;53.720;10.014;2022-10-17T01:07:43;11.00;99.90
10070;DHT22;5074;53.720;10.014;2022-10-17T01:10:12;11.00;99.90
10070;DHT22;5074;53.720;10.014;2022-10-17T01:12:44;11.00;99.90
10070;DHT22;5074;53.720;10.014;2022-10-17T01:15:24;11.00;99.90
10070;DHT22;5074;53.720;10.014;2022-10-17T01:18:05;11.10;99.90
10070;DHT22;5074;53.720;10.014;2022-10-17T01:24:16;11.10;99.90
10070;DHT22;5074;53.720;10.014;2022-10-17T01:29:58;11.10;99.90
10070;DHT22;5074;53.720;10.014;2022-10-17T01:32:39;11.20;99.90
10070;DHT22;5074;53.720;10.014;2022-10-17T01:35:16;11.20;99.90
10070;DHT22;5074;53.720;10.014;2022-10-17T01:37:49;11.20;99.90
10070;DHT22;5074;53.720;10.014;2022-10-17T01:40:23;11.10;99.90
10070;DHT22;5074;53.720;10.014;2022-10-17T01:42:56;11.10;99.90
10070;DHT22;5074;53.720;10.014;2022-10-17T01:45:28;11.10;99.90
10070;DHT22;5074;53.720;10.014;2022-10-17T01:48:03;11.10;99.90
10070;DHT22;5074;53.720;10.014;2022-10-17T01:50:36;11.10;99.90
10070;DHT22;5074;53.720;10.014;2022-10-17T01:53:08;11.20;99.90
10070;DHT22;5074;53.720;10.014;2022-10-17T01:55:41;11.20;99.90
10070;DHT22;5074;53.720;10.014;2022-10-17T01:58:12;11.20;99.90
10070;DHT22;5074;53.720;10.014;2022-10-17T02:00:45;11.20;99.90
10070;DHT22;5074;53.720;10.014;2022-10-17T02:03:18;11.30;99.90
10070;DHT22;5074;53.720;10.014;2022-10-17T02:05:48;11.30;99.90
10070;DHT22;5074;53.720;10.014;2022-10-17T02:08:23;11.30;99.90
10070;DHT22;5074;53.720;10.014;2022-10-17T02:10:54;11.40;99.90
10070;DHT22;5074;53.720;10.014;2022-10-17T02:13:30;11.40;99.90
10070;DHT22;5074;53.720;10.014;2022-10-17T02:16:11;11.40;99.90
10070;DHT22;5074;53.720;10.014;2022-10-17T02:18:56;11.40;99.90
10070;DHT22;5074;53.720;10.014;2022-10-17T02:21:43;11.40;99.90
10070;DHT22;5074;53.720;10.014;2022-10-17T02:24:17;11.40;99.90
10070;DHT22;5074;53.720;10.014;2022-10-17T02:26:52;11.40;99.90
10070;DHT22;5074;53.720;10.014;2022-10-17T02:29:27;11.40;99.90
10070;DHT22;5074;53.720;10.014;2022-10-17T02:32:01;11.40;99.90
10070;DHT22;5074;53.720;10.014;2022-10-17T02:34:35;11.40;99.90
10070;DHT22;5074;53.720;10.014;2022-10-17T02:37:07;11.40;99.90
10070;DHT22;5074;53.720;10.014;2022-10-17T02:39:38;11.50;99.90
10070;DHT22;5074;53.720;10.014;2022-10-17T02:42:08;11.50;99.90
10070;DHT22;5074;53.720;10.014;2022-10-17T02:44:39;11.50;99.90
10070;DHT22;5074;53.720;10.014;2022-10-17T02:47:11;11.50;99.90
10070;DHT22;5074;53.720;10.014;2022-10-17T02:49:46;11.50;99.90
10070;DHT22;5074;53.720;10.014;2022-10-17T02:52:19;11.50;99.90
10070;DHT22;5074;53.720;10.014;2022-10-17T02:54:53;11.50;99.90
10070;DHT22;5074;53.720;10.014;2022-10-17T02:57:26;11.50;99.90
10070;DHT22;5074;53.720;10.014;2022-10-17T03:00:00;11.50;99.90
10070;DHT22;5074;53.720;10.014;2022-10-17T03:02:37;11.50;99.90
10070;DHT22;5074;53.720;10.014;2022-10-17T03:05:08;11.50;99.90
10070;DHT22;5074;53.720;10.014;2022-10-17T03:07:37;11.60;99.90
10070;DHT22;5074;53.720;10.014;2022-10-17T03:10:05;11.60;99.90
10070;DHT22;5074;53.720;10.014;2022-10-17T03:12:33;11.60;99.90
10070;DHT22;5074;53.720;10.014;2022-10-17T03:15:02;11.50;99.90
10070;DHT22;5074;53.720;10.014;2022-10-17T03:17:31;11.60;99.90
10070;DHT22;5074;53.720;10.014;2022-10-17T03:19:59;11.60;99.90
10070;DHT22;5074;53.720;10.014;2022-10-17T03:22:28;11.60;99.90
10070;DHT22;5074;53.720;10.014;2022-10-17T03:24:57;11.60;99.90
10070;DHT22;5074;53.720;10.014;2022-10-17T03:27:25;11.60;99.90
10070;DHT22;5074;53.720;10.014;2022-10-17T03:29:54;11.70;99.90
10070;DHT22;5074;53.720;10.014;2022-10-17T03:32:22;11.70;99.90
10070;DHT22;5074;53.720;10.014;2022-10-17T03:34:50;11.70;99.90
10070;DHT22;5074;53.720;10.014;2022-10-17T03:37:18;11.70;99.90
10070;DHT22;5074;53.720;10.014;2022-10-17T03:39:47;11.70;99.90
10070;DHT22;5074;53.720;10.014;2022-10-17T03:42:15;11.70;99.90
10070;DHT22;5074;53.720;10.014;2022-10-17T03:44:43;11.70;99.90
10070;DHT22;5074;53.720;10.014;2022-10-17T03:47:11;11.60;99.90
10070;DHT22;5074;53.720;10.014;2022-10-17T03:49:39;11.60;99.90
10070;DHT22;5074;53.720;10.014;2022-10-17T03:52:09;11.60;99.90
10070;DHT22;5074;53.720;10.014;2022-10-17T03:54:38;11.60;99.90
10070;DHT22;5074;53.720;10.014;2022-10-17T03:57:07;11.50;99.90
10070;DHT22;5074;53.720;10.014;2022-10-17T03:59:35;11.60;99.90
10070;DHT22;5074;53.720;10.014;2022-10-17T04:02:03;11.50;99.90
10070;DHT22;5074;53.720;10.014;2022-10-17T04:04:31;11.50;99.90
10070;DHT22;5074;53.720;10.014;2022-10-17T04:06:59;11.50;99.90
10070;DHT22;5074;53.720;10.014;2022-10-17T04:09:27;11.50;99.90
10070;DHT22;5074;53.720;10.014;2022-10-17T04:11:55;11.60;99.90
10070;DHT22;5074;53.720;10.014;2022-10-17T04:14:25;11.50;99.90
10070;DHT22;5074;53.720;10.014;2022-10-17T04:16:53;11.50;99.90
10070;DHT22;5074;53.720;10.014;2022-10-17T04:19:21;11.50;99.90
10070;DHT22;5074;53.720;10.014;2022-10-17T04:21:49;11.50;99.90
10070;DHT22;5074;53.720;10.014;2022-10-17T04:24:17;11.50;99.90
10070;DHT22;5074;53.720;10.014;2022-10-17T04:26:46;11.60;99.90
10070;DHT22;5074;53.720;10.014;2022-10-17T04:29:16;11.60;99.90
10070;DHT22;5074;53.720;10.014;2022-10-17T04:31:46;11.60;99.90
10070;DHT22;5074;53.720;10.014;2022-10-17T04:34:15;11.60;99.90
10070;DHT22;5074;53.720;10.014;2022-10-17T04:36:43;11.60;99.90
10070;DHT22;5074;53.720;10.014;2022-10-17T04:39:12;11.60;99.90
10070;DHT22;5074;53.720;10.014;2022-10-17T04:41:40;11.60;99.90
10070;DHT22;5074;53.720;10.014;2022-10-17T04:44:08;11.50;99.90
10070;DHT22;5074;53.720;10.014;2022-10-17T04:46:37;11.50;99.90
10070;DHT22;5074;53.720;10.014;2022-10-17T04:49:06;11.50;99.90
10070;DHT22;5074;53.720;10.014;2022-10-17T04:51:35;11.70;99.90
10070;DHT22;5074;53.720;10.014;2022-10-17T04:54:04;11.60;99.90
10070;DHT22;5074;53.720;10.014;2022-10-17T04:56:32;11.60;99.90
10070;DHT22;5074;53.720;10.014;2022-10-17T04:59:00;11.50;99.90
10070;DHT22;5074;53.720;10.014;2022-10-17T05:01:28;11.50;99.90
10070;DHT22;5074;53.720;10.014;2022-10-17T05:03:56;11.40;99.90
10070;DHT22;5074;53.720;10.014;2022-10-17T05:06:25;11.30;99.90
10070;DHT22;5074;53.720;10.014;2022-10-17T05:08:54;11.30;99.90
10070;DHT22;5074;53.720;10.014;2022-10-17T05:11:23;11.30;99.90
10070;DHT22;5074;53.720;10.014;2022-10-17T05:13:53;11.30;99.90
10070;DHT22;5074;53.720;10.014;2022-10-17T05:16:22;11.40;99.90
10070;DHT22;5074;53.720;10.014;2022-10-17T05:18:52;11.40;99.90
10070;DHT22;5074;53.720;10.014;2022-10-17T05:21:22;11.40;99.90
10070;DHT22;5074;53.720;10.014;2022-10-17T05:23:53;11.40;99.90
10070;DHT22;5074;53.720;10.014;2022-10-17T05:26:21;11.50;99.90
10070;DHT22;5074;53.720;10.014;2022-10-17T05:28:50;11.50;99.90
10070;DHT22;5074;53.720;10.014;2022-10-17T05:31:18;11.40;99.90
10070;DHT22;5074;53.720;10.014;2022-10-17T05:33:46;11.40;99.90
10070;DHT22;5074;53.720;10.014;2022-10-17T05:36:14;11.40;99.90
10070;DHT22;5074;53.720;10.014;2022-10-17T05:38:42;11.30;99.90
10070;DHT22;5074;53.720;10.014;2022-10-17T05:41:12;11.30;99.90
10070;DHT22;5074;53.720;10.014;2022-10-17T05:43:40;11.20;99.90
10070;DHT22;5074;53.720;10.014;2022-10-17T05:46:08;11.20;99.90
10070;DHT22;5074;53.720;10.014;2022-10-17T05:48:36;11.10;99.90
10070;DHT22;5074;53.720;10.014;2022-10-17T05:51:07;11.10;99.90
10070;DHT22;5074;53.720;10.014;2022-10-17T05:53:37;11.10;99.90
10070;DHT22;5074;53.720;10.014;2022-10-17T05:56:07;11.10;99.90
10070;DHT22;5074;53.720;10.014;2022-10-17T05:58:39;11.10;99.90
10070;DHT22;5074;53.720;10.014;2022-10-17T06:01:16;11.00;99.90
10070;DHT22;5074;53.720;10.014;2022-10-17T06:03:45;11.00;99.90
10070;DHT22;5074;53.720;10.014;2022-10-17T06:06:13;11.00;99.90
10070;DHT22;5074;53.720;10.014;2022-10-17T06:08:42;11.00;99.90
10070;DHT22;5074;53.720;10.014;2022-10-17T06:11:10;11.00;99.90
10070;DHT22;5074;53.720;10.014;2022-10-17T06:13:40;11.00;99.90
10070;DHT22;5074;53.720;10.014;2022-10-17T06:16:08;11.00;99.90
10070;DHT22;5074;53.720;10.014;2022-10-17T06:18:36;11.00;99.90
10070;DHT22;5074;53.720;10.014;2022-10-17T06:21:05;11.10;99.90
10070;DHT22;5074;53.720;10.014;2022-10-17T06:23:35;11.10;99.90
10070;DHT22;5074;53.720;10.014;2022-10-17T06:26:03;11.10;99.90
10070;DHT22;5074;53.720;10.014;2022-10-17T06:28:32;11.20;99.90
10070;DHT22;5074;53.720;10.014;2022-10-17T06:31:04;11.20;99.90
10070;DHT22;5074;53.720;10.014;2022-10-17T06:33:33;11.30;99.90
10070;DHT22;5074;53.720;10.014;2022-10-17T06:36:01;11.30;99.90
10070;DHT22;5074;53.720;10.014;2022-10-17T06:38:30;11.40;99.90
10070;DHT22;5074;53.720;10.014;2022-10-17T06:41:01;11.40;99.90
10070;DHT22;5074;53.720;10.014;2022-10-17T06:43:33;11.40;99.90
10070;DHT22;5074;53.720;10.014;2022-10-17T06:46:01;11.40;99.90
10070;DHT22;5074;53.720;10.014;2022-10-17T06:48:31;11.50;99.90
10070;DHT22;5074;53.720;10.014;2022-10-17T06:50:59;11.60;99.90
10070;DHT22;5074;53.720;10.014;2022-10-17T06:53:27;11.60;99.90
10070;DHT22;5074;53.720;10.014;2022-10-17T06:55:56;11.60;99.90
10070;DHT22;5074;53.720;10.014;2022-10-17T06:58:28;11.70;99.90
10070;DHT22;5074;53.720;10.014;2022-10-17T07:00:57;11.80;99.90
10070;DHT22;5074;53.720;10.014;2022-10-17T07:03:27;11.80;99.90
10070;DHT22;5074;53.720;10.014;2022-10-17T07:05:57;11.90;99.90
10070;DHT22;5074;53.720;10.014;2022-10-17T07:08:25;12.00;99.90
10070;DHT22;5074;53.720;10.014;2022-10-17T07:10:54;12.10;99.90
10070;DHT22;5074;53.720;10.014;2022-10-17T07:13:22;12.20;99.90
10070;DHT22;5074;53.720;10.014;2022-10-17T07:15:51;12.30;99.90
10070;DHT22;5074;53.720;10.014;2022-10-17T07:18:23;12.40;99.90
10070;DHT22;5074;53.720;10.014;2022-10-17T07:20:52;12.50;99.90
10070;DHT22;5074;53.720;10.014;2022-10-17T07:23:22;12.50;99.90
10070;DHT22;5074;53.720;10.014;2022-10-17T07:25:50;12.60;99.90
10070;DHT22;5074;53.720;10.014;2022-10-17T07:28:18;12.70;99.90
10070;DHT22;5074;53.720;10.014;2022-10-17T07:30:46;12.80;99.90
10070;DHT22;5074;53.720;10.014;2022-10-17T07:33:19;12.80;99.90
10070;DHT22;5074;53.720;10.014;2022-10-17T07:35:48;13.00;99.90
10070;DHT22;5074;53.720;10.014;2022-10-17T07:38:18;13.00;99.90
10070;DHT22;5074;53.720;10.014;2022-10-17T07:40:53;13.10;99.90
10070;DHT22;5074;53.720;10.014;2022-10-17T07:43:22;13.20;99.90
10070;DHT22;5074;53.720;10.014;2022-10-17T07:45:51;13.20;99.90
10070;DHT22;5074;53.720;10.014;2022-10-17T07:48:21;13.30;99.90
10070;DHT22;5074;53.720;10.014;2022-10-17T07:50:50;13.40;99.90
10070;DHT22;5074;53.720;10.014;2022-10-17T07:53:18;13.40;99.90
10070;DHT22;5074;53.720;10.014;2022-10-17T07:55:46;13.50;99.90
10070;DHT22;5074;53.720;10.014;2022-10-17T07:58:16;13.60;99.90
10070;DHT22;5074;53.720;10.014;2022-10-17T08:00:45;13.60;99.90
10070;DHT22;5074;53.720;10.014;2022-10-17T08:03:14;13.70;99.90
10070;DHT22;5074;53.720;10.014;2022-10-17T08:05:42;13.90;99.90
10070;DHT22;5074;53.720;10.014;2022-10-17T08:08:10;14.00;99.90
10070;DHT22;5074;53.720;10.014;2022-10-17T08:10:38;14.20;99.90
10070;DHT22;5074;53.720;10.014;2022-10-17T08:13:06;14.40;99.90
10070;DHT22;5074;53.720;10.014;2022-10-17T08:15:36;14.40;99.90
10070;DHT22;5074;53.720;10.014;2022-10-17T08:18:05;14.50;99.90
10070;DHT22;5074;53.720;10.014;2022-10-17T08:20:33;14.50;99.90
10070;DHT22;5074;53.720;10.014;2022-10-17T08:23:01;14.50;99.90
10070;DHT22;5074;53.720;10.014;2022-10-17T08:25:29;14.60;99.90
10070;DHT22;5074;53.720;10.014;2022-10-17T08:27:57;14.60;99.90
10070;DHT22;5074;53.720;10.014;2022-10-17T08:30:25;14.70;99.90
10070;DHT22;5074;53.720;10.014;2022-10-17T08:32:57;14.70;99.90
10070;DHT22;5074;53.720;10.014;2022-10-17T08:35:25;14.80;99.90
10070;DHT22;5074;53.720;10.014;2022-10-17T08:37:53;14.90;99.90
10070;DHT22;5074;53.720;10.014;2022-10-17T08:40:22;15.00;99.90
10070;DHT22;5074;53.720;10.014;2022-10-17T08:42:58;15.10;99.90
10070;DHT22;5074;53.720;10.014;2022-10-17T08:45:50;15.10;99.90
10070;DHT22;5074;53.720;10.014;2022-10-17T08:48:22;15.20;99.90
10070;DHT22;5074;53.720;10.014;2022-10-17T08:50:53;15.30;99.90
10070;DHT22;5074;53.720;10.014;2022-10-17T08:53:26;15.40;99.90
10070;DHT22;5074;53.720;10.014;2022-10-17T08:55:59;15.50;99.90
10070;DHT22;5074;53.720;10.014;2022-10-17T08:58:40;15.60;99.90
10070;DHT22;5074;53.720;10.014;2022-10-17T09:01:10;15.60;99.90
10070;DHT22;5074;53.720;10.014;2022-10-17T09:04:04;15.70;99.90
10070;DHT22;5074;53.720;10.014;2022-10-17T09:06:54;15.80;99.90
10070;DHT22;5074;53.720;10.014;2022-10-17T09:09:30;15.80;99.90
10070;DHT22;5074;53.720;10.014;2022-10-17T09:12:08;15.90;99.90
10070;DHT22;5074;53.720;10.014;2022-10-17T09:17:37;16.10;99.90
10070;DHT22;5074;53.720;10.014;2022-10-17T09:20:17;16.20;99.90
10070;DHT22;5074;53.720;10.014;2022-10-17T09:22:48;16.20;99.90
10070;DHT22;5074;53.720;10.014;2022-10-17T09:25:27;16.20;99.90
10070;DHT22;5074;53.720;10.014;2022-10-17T09:28:01;16.20;99.90
10070;DHT22;5074;53.720;10.014;2022-10-17T09:30:39;16.30;99.90
10070;DHT22;5074;53.720;10.014;2022-10-17T09:33:12;16.30;99.90
10070;DHT22;5074;53.720;10.014;2022-10-17T09:36:03;16.40;99.90
10070;DHT22;5074;53.720;10.014;2022-10-17T09:38:36;16.50;99.90
10070;DHT22;5074;53.720;10.014;2022-10-17T09:41:12;16.50;99.90
10070;DHT22;5074;53.720;10.014;2022-10-17T09:44:13;16.60;99.90
10070;DHT22;5074;53.720;10.014;2022-10-17T09:46:45;16.80;99.90
10070;DHT22;5074;53.720;10.014;2022-10-17T09:49:25;16.80;99.90
10070;DHT22;5074;53.720;10.014;2022-10-17T09:51:59;16.90;99.90
10070;DHT22;5074;53.720;10.014;2022-10-17T09:54:32;17.00;99.90
10070;DHT22;5074;53.720;10.014;2022-10-17T09:57:08;17.10;99.90
10070;DHT22;5074;53.720;10.014;2022-10-17T09:59:38;17.10;99.90
10070;DHT22;5074;53.720;10.014;2022-10-17T10:02:18;17.20;99.90
10070;DHT22;5074;53.720;10.014;2022-10-17T10:04:55;17.20;99.90
10070;DHT22;5074;53.720;10.014;2022-10-17T10:07:34;17.20;99.90
10070;DHT22;5074;53.720;10.014;2022-10-17T10:10:05;17.30;99.90
10070;DHT22;5074;53.720;10.014;2022-10-17T10:12:36;17.30;99.90
10070;DHT22;5074;53.720;10.014;2022-10-17T10:15:29;17.40;99.90
10070;DHT22;5074;53.720;10.014;2022-10-17T10:18:01;17.40;99.90
10070;DHT22;5074;53.720;10.014;2022-10-17T10:20:30;17.50;99.90
10070;DHT22;5074;53.720;10.014;2022-10-17T10:23:06;17.50;99.90
10070;DHT22;5074;53.720;10.014;2022-10-17T10:25:53;17.60;99.90
10070;DHT22;5074;53.720;10.014;2022-10-17T10:28:24;17.60;99.90
10070;DHT22;5074;53.720;10.014;2022-10-17T10:30:54;17.70;99.90
10070;DHT22;5074;53.720;10.014;2022-10-17T10:33:42;17.70;99.90
10070;DHT22;5074;53.720;10.014;2022-10-17T10:36:16;17.70;99.90
10070;DHT22;5074;53.720;10.014;2022-10-17T10:38:51;17.80;99.90
10070;DHT22;5074;53.720;10.014;2022-10-17T10:41:21;17.80;99.90
10070;DHT22;5074;53.720;10.014;2022-10-17T10:43:53;17.90;99.90
10070;DHT22;5074;53.720;10.014;2022-10-17T10:46:23;17.90;99.90
10070;DHT22;5074;53.720;10.014;2022-10-17T10:48:53;17.90;99.90
10070;DHT22;5074;53.720;10.014;2022-10-17T10:51:26;18.00;99.90
10070;DHT22;5074;53.720;10.014;2022-10-17T10:54:01;18.00;99.90
10070;DHT22;5074;53.720;10.014;2022-10-17T10:56:33;18.20;99.90
10070;DHT22;5074;53.720;10.014;2022-10-17T10:59:07;18.20;99.90
10070;DHT22;5074;53.720;10.014;2022-10-17T11:01:45;18.20;99.90
10070;DHT22;5074;53.720;10.014;2022-10-17T11:04:20;18.30;99.90
10070;DHT22;5074;53.720;10.014;2022-10-17T11:06:57;18.30;99.90
10070;DHT22;5074;53.720;10.014;2022-10-17T11:09:33;18.40;99.90
10070;DHT22;5074;53.720;10.014;2022-10-17T11:12:12;18.40;99.90
10070;DHT22;5074;53.720;10.014;2022-10-17T11:14:48;18.30;99.90
10070;DHT22;5074;53.720;10.014;2022-10-17T11:17:24;18.30;99.90
10070;DHT22;5074;53.720;10.014;2022-10-17T11:20:02;18.30;99.90
10070;DHT22;5074;53.720;10.014;2022-10-17T11:22:37;18.30;99.90
10070;DHT22;5074;53.720;10.014;2022-10-17T11:25:14;18.30;99.90
10070;DHT22;5074;53.720;10.014;2022-10-17T11:27:49;18.30;99.90
10070;DHT22;5074;53.720;10.014;2022-10-17T11:30:17;18.30;99.90
10070;DHT22;5074;53.720;10.014;2022-10-17T11:32:46;18.30;99.90
10070;DHT22;5074;53.720;10.014;2022-10-17T11:35:21;18.40;99.90
10070;DHT22;5074;53.720;10.014;2022-10-17T11:37:52;18.50;99.90
10070;DHT22;5074;53.720;10.014;2022-10-17T11:40:39;18.50;99.90
10070;DHT22;5074;53.720;10.014;2022-10-17T11:43:11;18.70;99.90
10070;DHT22;5074;53.720;10.014;2022-10-17T11:45:43;18.70;99.90
10070;DHT22;5074;53.720;10.014;2022-10-17T11:48:16;18.70;99.90
10070;DHT22;5074;53.720;10.014;2022-10-17T11:50:50;18.70;99.90
10070;DHT22;5074;53.720;10.014;2022-10-17T11:53:47;18.70;99.90
10070;DHT22;5074;53.720;10.014;2022-10-17T11:56:21;18.70;99.90
10070;DHT22;5074;53.720;10.014;2022-10-17T11:59:00;18.70;99.90
10070;DHT22;5074;53.720;10.014;2022-10-17T12:01:45;18.70;99.90
10070;DHT22;5074;53.720;10.014;2022-10-17T12:04:20;18.60;99.90
10070;DHT22;5074;53.720;10.014;2022-10-17T12:07:04;18.50;99.90
10070;DHT22;5074;53.720;10.014;2022-10-17T12:09:39;18.50;99.90
10070;DHT22;5074;53.720;10.014;2022-10-17T12:12:22;18.40;99.90
10070;DHT22;5074;53.720;10.014;2022-10-17T12:14:51;18.30;99.90
10070;DHT22;5074;53.720;10.014;2022-10-17T12:17:24;18.30;99.90
10070;DHT22;5074;53.720;10.014;2022-10-17T12:22:59;18.20;99.90
10070;DHT22;5074;53.720;10.014;2022-10-17T12:25:30;18.10;99.90
10070;DHT22;5074;53.720;10.014;2022-10-17T12:28:15;17.90;99.90
10070;DHT22;5074;53.720;10.014;2022-10-17T12:30:49;17.60;99.90
10070;DHT22;5074;53.720;10.014;2022-10-17T12:33:20;17.30;99.90
10070;DHT22;5074;53.720;10.014;2022-10-17T12:41:56;16.90;99.90
10070;DHT22;5074;53.720;10.014;2022-10-17T12:44:35;16.80;99.90
10070;DHT22;5074;53.720;10.014;2022-10-17T12:47:26;16.80;99.90
10070;DHT22;5074;53.720;10.014;2022-10-17T12:49:57;16.80;99.90
10070;DHT22;5074;53.720;10.014;2022-10-17T12:52:26;16.80;99.90
10070;DHT22;5074;53.720;10.014;2022-10-17T12:55:17;16.70;99.90
10070;DHT22;5074;53.720;10.014;2022-10-17T12:57:48;16.70;99.90
10070;DHT22;5074;53.720;10.014;2022-10-17T13:00:22;16.60;99.90
10070;DHT22;5074;53.720;10.014;2022-10-17T13:02:57;16.70;99.90
10070;DHT22;5074;53.720;10.014;2022-10-17T13:05:31;16.70;99.90
10070;DHT22;5074;53.720;10.014;2022-10-17T13:08:01;16.70;99.90
10070;DHT22;5074;53.720;10.014;2022-10-17T13:10:34;16.70;99.90
10070;DHT22;5074;53.720;10.014;2022-10-17T13:13:11;16.60;99.90
10070;DHT22;5074;53.720;10.014;2022-10-17T13:15:46;16.60;99.90
10070;DHT22;5074;53.720;10.014;2022-10-17T13:18:19;16.50;99.90
10070;DHT22;5074;53.720;10.014;2022-10-17T13:20:56;16.60;99.90
10070;DHT22;5074;53.720;10.014;2022-10-17T13:23:27;16.60;99.90
10070;DHT22;5074;53.720;10.014;2022-10-17T13:26:01;16.50;99.90
10070;DHT22;5074;53.720;10.014;2022-10-17T13:28:33;16.50;99.90
10070;DHT22;5074;53.720;10.014;2022-10-17T13:31:06;16.40;99.90
10070;DHT22;5074;53.720;10.014;2022-10-17T13:33:54;16.40;99.90
10070;DHT22;5074;53.720;10.014;2022-10-17T13:36:24;16.30;99.90
10070;DHT22;5074;53.720;10.014;2022-10-17T13:38:52;16.30;99.90
10070;DHT22;5074;53.720;10.014;2022-10-17T13:41:22;16.30;99.90
10070;DHT22;5074;53.720;10.014;2022-10-17T13:44:03;16.30;99.90
10070;DHT22;5074;53.720;10.014;2022-10-17T13:46:39;16.30;99.90
10070;DHT22;5074;53.720;10.014;2022-10-17T13:49:09;16.30;99.90
10070;DHT22;5074;53.720;10.014;2022-10-17T13:51:42;16.30;99.90
10070;DHT22;5074;53.720;10.014;2022-10-17T13:54:18;16.30;99.90
10070;DHT22;5074;53.720;10.014;2022-10-17T13:57:13;16.30;99.90
10070;DHT22;5074;53.720;10.014;2022-10-17T13:59:45;16.30;99.90
10070;DHT22;5074;53.720;10.014;2022-10-17T14:02:18;16.20;99.90
10070;DHT22;5074;53.720;10.014;2022-10-17T14:04:58;16.20;99.90
10070;DHT22;5074;53.720;10.014;2022-10-17T14:07:45;16.20;99.90
10070;DHT22;5074;53.720;10.014;2022-10-17T14:10:38;16.20;99.90
10070;DHT22;5074;53.720;10.014;2022-10-17T14:13:15;16.20;99.90
10070;DHT22;5074;53.720;10.014;2022-10-17T14:15:47;16.20;99.90
10070;DHT22;5074;53.720;10.014;2022-10-17T14:18:18;16.10;99.90
10070;DHT22;5074;53.720;10.014;2022-10-17T14:20:48;16.10;99.90
10070;DHT22;5074;53.720;10.014;2022-10-17T14:23:38;16.10;99.90
10070;DHT22;5074;53.720;10.014;2022-10-17T14:26:13;16.10;99.90
10070;DHT22;5074;53.720;10.014;2022-10-17T14:28:43;16.20;99.90
10070;DHT22;5074;53.720;10.014;2022-10-17T14:31:21;16.20;99.90
10070;DHT22;5074;53.720;10.014;2022-10-17T14:33:53;16.20;99.90
10070;DHT22;5074;53.720;10.014;2022-10-17T14:36:29;16.20;99.90
10070;DHT22;5074;53.720;10.014;2022-10-17T14:39:02;16.20;99.90
10070;DHT22;5074;53.720;10.014;2022-10-17T14:41:41;16.20;99.90
10070;DHT22;5074;53.720;10.014;2022-10-17T14:44:20;16.30;99.90
10070;DHT22;5074;53.720;10.014;2022-10-17T14:46:53;16.30;99.90
10070;DHT22;5074;53.720;10.014;2022-10-17T14:49:31;16.20;99.90
10070;DHT22;5074;53.720;10.014;2022-10-17T14:54:55;16.20;99.90
10070;DHT22;5074;53.720;10.014;2022-10-17T14:57:26;16.20;99.90
10070;DHT22;5074;53.720;10.014;2022-10-17T15:00:06;16.20;99.90
10070;DHT22;5074;53.720;10.014;2022-10-17T15:02:37;16.20;99.90
10070;DHT22;5074;53.720;10.014;2022-10-17T15:05:07;16.20;99.90
10070;DHT22;5074;53.720;10.014;2022-10-17T15:07:39;16.20;99.90
10070;DHT22;5074;53.720;10.014;2022-10-17T15:10:10;16.20;99.90
10070;DHT22;5074;53.720;10.014;2022-10-17T15:12:58;16.20;99.90
10070;DHT22;5074;53.720;10.014;2022-10-17T15:15:47;16.20;99.90
10070;DHT22;5074;53.720;10.014;2022-10-17T15:18:17;16.20;99.90
10070;DHT22;5074;53.720;10.014;2022-10-17T15:20:47;16.20;99.90
10070;DHT22;5074;53.720;10.014;2022-10-17T15:23:32;16.20;99.90
10070;DHT22;5074;53.720;10.014;2022-10-17T15:26:00;16.20;99.90
10070;DHT22;5074;53.720;10.014;2022-10-17T15:28:28;16.20;99.90
10070;DHT22;5074;53.720;10.014;2022-10-17T15:30:57;16.20;99.90
10070;DHT22;5074;53.720;10.014;2022-10-17T15:33:25;16.20;99.90
10070;DHT22;5074;53.720;10.014;2022-10-17T15:35:54;16.20;99.90
10070;DHT22;5074;53.720;10.014;2022-10-17T15:38:23;16.20;99.90
10070;DHT22;5074;53.720;10.014;2022-10-17T15:40:51;16.20;99.90
10070;DHT22;5074;53.720;10.014;2022-10-17T15:43:19;16.20;99.90
10070;DHT22;5074;53.720;10.014;2022-10-17T15:45:47;16.20;99.90
10070;DHT22;5074;53.720;10.014;2022-10-17T15:48:16;16.20;99.90
10070;DHT22;5074;53.720;10.014;2022-10-17T15:50:46;16.20;99.90
10070;DHT22;5074;53.720;10.014;2022-10-17T15:53:16;16.20;99.90
10070;DHT22;5074;53.720;10.014;2022-10-17T15:55:44;16.20;99.90
10070;DHT22;5074;53.720;10.014;2022-10-17T15:58:15;16.20;99.90
10070;DHT22;5074;53.720;10.014;2022-10-17T16:00:44;16.10;99.90
10070;DHT22;5074;53.720;10.014;2022-10-17T16:03:13;16.10;99.90
10070;DHT22;5074;53.720;10.014;2022-10-17T16:05:41;16.10;99.90
10070;DHT22;5074;53.720;10.014;2022-10-17T16:08:09;16.10;99.90
10070;DHT22;5074;53.720;10.014;2022-10-17T16:10:38;16.10;99.90
10070;DHT22;5074;53.720;10.014;2022-10-17T16:13:08;16.10;99.90
10070;DHT22;5074;53.720;10.014;2022-10-17T16:15:42;16.10;99.90
10070;DHT22;5074;53.720;10.014;2022-10-17T16:18:10;16.10;99.90
10070;DHT22;5074;53.720;10.014;2022-10-17T16:20:38;16.10;99.90
10070;DHT22;5074;53.720;10.014;2022-10-17T16:23:07;16.10;99.90